sensor_id;sensor_type;location;lat;lon;timestamp;P1;durP1;ratioP1;P2;durP2;ratioP2
64619;SDS011;51029;51.058;13.826;2023-05-20T00:00:03;22.63;;;20.00;;
64619;SDS011;51029;51.058;13.826;2023-05-20T00:02:29;23.97;;;19.93;;
64619;SDS011;51029;51.058;13.826;2023-05-20T00:04:55;23.00;;;20.23;;
64619;SDS011;51029;51.058;13.826;2023-05-20T00:07:20;22.87;;;20.43;;
64619;SDS011;51029;51.058;13.826;2023-05-20T00:09:46;21.73;;;19.20;;
64619;SDS011;51029;51.058;13.826;2023-05-20T00:12:12;22.60;;;19.37;;
64619;SDS011;51029;51.058;13.826;2023-05-20T00:14:37;24.73;;;20.27;;
64619;SDS011;51029;51.058;13.826;2023-05-20T00:17:03;21.80;;;18.77;;
64619;SDS011;51029;51.058;13.826;2023-05-20T00:19:28;22.37;;;18.93;;
64619;SDS011;51029;51.058;13.826;2023-05-20T00:21:54;22.67;;;19.23;;
64619;SDS011;51029;51.058;13.826;2023-05-20T00:24:21;21.00;;;18.73;;
64619;SDS011;51029;51.058;13.826;2023-05-20T00:26:47;22.83;;;18.60;;
64619;SDS011;51029;51.058;13.826;2023-05-20T00:29:13;24.07;;;18.97;;
64619;SDS011;51029;51.058;13.826;2023-05-20T00:31:38;21.13;;;18.00;;
64619;SDS011;51029;51.058;13.826;2023-05-20T00:34:04;20.20;;;17.90;;
64619;SDS011;51029;51.058;13.826;2023-05-20T00:36:30;22.10;;;18.57;;
64619;SDS011;51029;51.058;13.826;2023-05-20T00:38:55;19.60;;;17.60;;
64619;SDS011;51029;51.058;13.826;2023-05-20T00:41:21;20.87;;;18.37;;
64619;SDS011;51029;51.058;13.826;2023-05-20T00:43:46;21.23;;;18.50;;
64619;SDS011;51029;51.058;13.826;2023-05-20T00:46:12;22.20;;;18.83;;
64619;SDS011;51029;51.058;13.826;2023-05-20T00:48:41;22.50;;;18.33;;
64619;SDS011;51029;51.058;13.826;2023-05-20T00:51:09;20.47;;;18.27;;
64619;SDS011;51029;51.058;13.826;2023-05-20T00:53:35;22.90;;;19.10;;
64619;SDS011;51029;51.058;13.826;2023-05-20T00:56:02;20.40;;;18.20;;
64619;SDS011;51029;51.058;13.826;2023-05-20T00:58:28;21.33;;;17.60;;
64619;SDS011;51029;51.058;13.826;2023-05-20T01:00:53;23.03;;;18.23;;
64619;SDS011;51029;51.058;13.826;2023-05-20T01:03:19;21.40;;;18.23;;
64619;SDS011;51029;51.058;13.826;2023-05-20T01:05:46;20.27;;;17.93;;
64619;SDS011;51029;51.058;13.826;2023-05-20T01:08:11;22.47;;;18.67;;
64619;SDS011;51029;51.058;13.826;2023-05-20T01:10:38;21.57;;;19.30;;
64619;SDS011;51029;51.058;13.826;2023-05-20T01:13:09;20.87;;;18.43;;
64619;SDS011;51029;51.058;13.826;2023-05-20T01:15:39;20.20;;;18.00;;
64619;SDS011;51029;51.058;13.826;2023-05-20T01:18:07;21.40;;;18.17;;
64619;SDS011;51029;51.058;13.826;2023-05-20T01:20:34;21.03;;;18.60;;
64619;SDS011;51029;51.058;13.826;2023-05-20T01:23:01;23.63;;;20.30;;
64619;SDS011;51029;51.058;13.826;2023-05-20T01:25:27;22.77;;;19.47;;
64619;SDS011;51029;51.058;13.826;2023-05-20T01:27:53;25.50;;;20.27;;
64619;SDS011;51029;51.058;13.826;2023-05-20T01:30:28;25.87;;;20.40;;
64619;SDS011;51029;51.058;13.826;2023-05-20T01:33:03;23.73;;;19.90;;
64619;SDS011;51029;51.058;13.826;2023-05-20T01:35:33;23.43;;;19.87;;
64619;SDS011;51029;51.058;13.826;2023-05-20T01:37:59;24.07;;;20.97;;
64619;SDS011;51029;51.058;13.826;2023-05-20T01:40:25;23.10;;;19.73;;
64619;SDS011;51029;51.058;13.826;2023-05-20T01:42:51;22.67;;;19.57;;
64619;SDS011;51029;51.058;13.826;2023-05-20T01:45:19;24.37;;;20.07;;
64619;SDS011;51029;51.058;13.826;2023-05-20T01:47:45;21.90;;;19.50;;
64619;SDS011;51029;51.058;13.826;2023-05-20T01:50:11;21.93;;;18.57;;
64619;SDS011;51029;51.058;13.826;2023-05-20T01:52:36;24.00;;;18.63;;
64619;SDS011;51029;51.058;13.826;2023-05-20T01:55:02;22.00;;;18.80;;
64619;SDS011;51029;51.058;13.826;2023-05-20T01:57:27;22.67;;;18.27;;
64619;SDS011;51029;51.058;13.826;2023-05-20T01:59:53;19.27;;;17.23;;
64619;SDS011;51029;51.058;13.826;2023-05-20T02:02:18;21.77;;;18.33;;
64619;SDS011;51029;51.058;13.826;2023-05-20T02:04:44;20.57;;;17.70;;
64619;SDS011;51029;51.058;13.826;2023-05-20T02:07:16;20.40;;;18.00;;
64619;SDS011;51029;51.058;13.826;2023-05-20T02:09:42;21.30;;;18.67;;
64619;SDS011;51029;51.058;13.826;2023-05-20T02:12:08;22.47;;;18.57;;
64619;SDS011;51029;51.058;13.826;2023-05-20T02:14:40;21.50;;;19.00;;
64619;SDS011;51029;51.058;13.826;2023-05-20T02:17:06;21.50;;;18.33;;
64619;SDS011;51029;51.058;13.826;2023-05-20T02:19:31;22.00;;;19.03;;
64619;SDS011;51029;51.058;13.826;2023-05-20T02:21:56;21.60;;;18.23;;
64619;SDS011;51029;51.058;13.826;2023-05-20T02:24:22;21.37;;;18.47;;
64619;SDS011;51029;51.058;13.826;2023-05-20T02:26:48;22.30;;;18.20;;
64619;SDS011;51029;51.058;13.826;2023-05-20T02:29:15;22.13;;;18.70;;
64619;SDS011;51029;51.058;13.826;2023-05-20T02:31:40;21.00;;;18.30;;
64619;SDS011;51029;51.058;13.826;2023-05-20T02:34:06;21.07;;;17.87;;
64619;SDS011;51029;51.058;13.826;2023-05-20T02:36:31;21.50;;;18.87;;
64619;SDS011;51029;51.058;13.826;2023-05-20T02:38:57;22.20;;;19.27;;
64619;SDS011;51029;51.058;13.826;2023-05-20T02:41:25;23.57;;;19.07;;
64619;SDS011;51029;51.058;13.826;2023-05-20T02:43:50;23.27;;;19.83;;
64619;SDS011;51029;51.058;13.826;2023-05-20T02:46:15;22.53;;;19.33;;
64619;SDS011;51029;51.058;13.826;2023-05-20T02:48:43;23.60;;;20.03;;
64619;SDS011;51029;51.058;13.826;2023-05-20T02:51:09;20.43;;;18.10;;
64619;SDS011;51029;51.058;13.826;2023-05-20T02:53:35;21.93;;;18.83;;
64619;SDS011;51029;51.058;13.826;2023-05-20T02:56:02;24.17;;;19.10;;
64619;SDS011;51029;51.058;13.826;2023-05-20T02:58:28;23.60;;;19.87;;
64619;SDS011;51029;51.058;13.826;2023-05-20T03:00:54;22.97;;;19.60;;
64619;SDS011;51029;51.058;13.826;2023-05-20T03:03:22;24.33;;;19.57;;
64619;SDS011;51029;51.058;13.826;2023-05-20T03:05:49;22.43;;;19.27;;
64619;SDS011;51029;51.058;13.826;2023-05-20T03:08:14;22.43;;;19.87;;
64619;SDS011;51029;51.058;13.826;2023-05-20T03:10:40;22.27;;;19.70;;
64619;SDS011;51029;51.058;13.826;2023-05-20T03:13:06;22.70;;;20.20;;
64619;SDS011;51029;51.058;13.826;2023-05-20T03:15:36;24.50;;;20.67;;
64619;SDS011;51029;51.058;13.826;2023-05-20T03:18:03;25.00;;;21.30;;
64619;SDS011;51029;51.058;13.826;2023-05-20T03:20:29;27.50;;;21.40;;
64619;SDS011;51029;51.058;13.826;2023-05-20T03:22:56;25.27;;;20.93;;
64619;SDS011;51029;51.058;13.826;2023-05-20T03:25:23;24.40;;;21.07;;
64619;SDS011;51029;51.058;13.826;2023-05-20T03:27:49;25.20;;;21.30;;
64619;SDS011;51029;51.058;13.826;2023-05-20T03:30:15;30.10;;;24.67;;
64619;SDS011;51029;51.058;13.826;2023-05-20T03:32:41;27.17;;;22.60;;
64619;SDS011;51029;51.058;13.826;2023-05-20T03:35:06;27.70;;;24.03;;
64619;SDS011;51029;51.058;13.826;2023-05-20T03:37:33;27.50;;;23.53;;
64619;SDS011;51029;51.058;13.826;2023-05-20T03:39:59;27.00;;;24.10;;
64619;SDS011;51029;51.058;13.826;2023-05-20T03:42:25;28.60;;;23.63;;
64619;SDS011;51029;51.058;13.826;2023-05-20T03:44:50;28.67;;;23.23;;
64619;SDS011;51029;51.058;13.826;2023-05-20T03:47:16;27.90;;;23.37;;
64619;SDS011;51029;51.058;13.826;2023-05-20T03:49:41;28.63;;;23.07;;
64619;SDS011;51029;51.058;13.826;2023-05-20T03:52:06;27.53;;;21.87;;
64619;SDS011;51029;51.058;13.826;2023-05-20T03:54:32;24.63;;;21.97;;
64619;SDS011;51029;51.058;13.826;2023-05-20T03:57:00;24.10;;;21.50;;
64619;SDS011;51029;51.058;13.826;2023-05-20T03:59:26;25.67;;;21.93;;
64619;SDS011;51029;51.058;13.826;2023-05-20T04:01:52;24.30;;;21.10;;
64619;SDS011;51029;51.058;13.826;2023-05-20T04:04:18;27.77;;;22.13;;
64619;SDS011;51029;51.058;13.826;2023-05-20T04:06:44;27.53;;;22.03;;
64619;SDS011;51029;51.058;13.826;2023-05-20T04:09:10;25.03;;;22.37;;
64619;SDS011;51029;51.058;13.826;2023-05-20T04:11:35;25.23;;;21.50;;
64619;SDS011;51029;51.058;13.826;2023-05-20T04:14:01;25.10;;;21.87;;
64619;SDS011;51029;51.058;13.826;2023-05-20T04:16:27;27.47;;;23.03;;
64619;SDS011;51029;51.058;13.826;2023-05-20T04:18:53;25.03;;;22.03;;
64619;SDS011;51029;51.058;13.826;2023-05-20T04:21:19;23.83;;;20.73;;
64619;SDS011;51029;51.058;13.826;2023-05-20T04:23:45;25.80;;;21.33;;
64619;SDS011;51029;51.058;13.826;2023-05-20T04:26:10;25.80;;;22.43;;
64619;SDS011;51029;51.058;13.826;2023-05-20T04:28:36;26.10;;;22.03;;
64619;SDS011;51029;51.058;13.826;2023-05-20T04:31:02;25.00;;;21.57;;
64619;SDS011;51029;51.058;13.826;2023-05-20T04:33:28;26.23;;;22.10;;
64619;SDS011;51029;51.058;13.826;2023-05-20T04:35:54;24.43;;;21.33;;
64619;SDS011;51029;51.058;13.826;2023-05-20T04:38:25;27.20;;;22.27;;
64619;SDS011;51029;51.058;13.826;2023-05-20T04:40:54;29.50;;;23.47;;
64619;SDS011;51029;51.058;13.826;2023-05-20T04:43:22;27.07;;;22.97;;
64619;SDS011;51029;51.058;13.826;2023-05-20T04:45:56;30.83;;;23.43;;
64619;SDS011;51029;51.058;13.826;2023-05-20T04:48:23;32.17;;;23.97;;
64619;SDS011;51029;51.058;13.826;2023-05-20T04:50:49;27.23;;;22.57;;
64619;SDS011;51029;51.058;13.826;2023-05-20T04:53:18;29.27;;;24.33;;
64619;SDS011;51029;51.058;13.826;2023-05-20T04:55:47;27.57;;;23.20;;
64619;SDS011;51029;51.058;13.826;2023-05-20T04:58:13;29.60;;;23.80;;
64619;SDS011;51029;51.058;13.826;2023-05-20T05:00:41;27.63;;;23.20;;
64619;SDS011;51029;51.058;13.826;2023-05-20T05:03:07;28.00;;;24.30;;
64619;SDS011;51029;51.058;13.826;2023-05-20T05:05:34;28.87;;;23.27;;
64619;SDS011;51029;51.058;13.826;2023-05-20T05:08:01;28.43;;;24.53;;
64619;SDS011;51029;51.058;13.826;2023-05-20T05:10:27;30.53;;;24.60;;
64619;SDS011;51029;51.058;13.826;2023-05-20T05:12:53;27.63;;;24.63;;
64619;SDS011;51029;51.058;13.826;2023-05-20T05:15:19;30.17;;;23.97;;
64619;SDS011;51029;51.058;13.826;2023-05-20T05:17:45;29.00;;;23.87;;
64619;SDS011;51029;51.058;13.826;2023-05-20T05:20:10;26.23;;;23.13;;
64619;SDS011;51029;51.058;13.826;2023-05-20T05:22:36;29.10;;;23.67;;
64619;SDS011;51029;51.058;13.826;2023-05-20T05:25:03;29.27;;;24.67;;
64619;SDS011;51029;51.058;13.826;2023-05-20T05:27:30;28.00;;;24.53;;
64619;SDS011;51029;51.058;13.826;2023-05-20T05:29:56;27.87;;;24.03;;
64619;SDS011;51029;51.058;13.826;2023-05-20T05:32:21;28.37;;;24.23;;
64619;SDS011;51029;51.058;13.826;2023-05-20T05:34:47;29.97;;;24.40;;
64619;SDS011;51029;51.058;13.826;2023-05-20T05:37:12;31.47;;;25.50;;
64619;SDS011;51029;51.058;13.826;2023-05-20T05:39:38;28.50;;;25.30;;
64619;SDS011;51029;51.058;13.826;2023-05-20T05:42:03;28.90;;;25.77;;
64619;SDS011;51029;51.058;13.826;2023-05-20T05:44:29;30.27;;;25.27;;
64619;SDS011;51029;51.058;13.826;2023-05-20T05:46:55;29.87;;;25.40;;
64619;SDS011;51029;51.058;13.826;2023-05-20T05:49:20;30.03;;;25.47;;
64619;SDS011;51029;51.058;13.826;2023-05-20T05:51:46;28.53;;;24.73;;
64619;SDS011;51029;51.058;13.826;2023-05-20T05:54:11;30.10;;;25.23;;
64619;SDS011;51029;51.058;13.826;2023-05-20T05:56:37;29.67;;;25.30;;
64619;SDS011;51029;51.058;13.826;2023-05-20T05:59:03;28.87;;;25.10;;
64619;SDS011;51029;51.058;13.826;2023-05-20T06:01:28;27.93;;;24.50;;
64619;SDS011;51029;51.058;13.826;2023-05-20T06:03:54;28.27;;;25.27;;
64619;SDS011;51029;51.058;13.826;2023-05-20T06:06:20;30.63;;;24.77;;
64619;SDS011;51029;51.058;13.826;2023-05-20T06:08:45;27.07;;;23.97;;
64619;SDS011;51029;51.058;13.826;2023-05-20T06:11:11;27.57;;;24.67;;
64619;SDS011;51029;51.058;13.826;2023-05-20T06:13:36;27.30;;;24.07;;
64619;SDS011;51029;51.058;13.826;2023-05-20T06:16:02;30.27;;;24.77;;
64619;SDS011;51029;51.058;13.826;2023-05-20T06:18:28;30.37;;;25.10;;
64619;SDS011;51029;51.058;13.826;2023-05-20T06:20:54;26.63;;;23.30;;
64619;SDS011;51029;51.058;13.826;2023-05-20T06:23:23;28.97;;;24.47;;
64619;SDS011;51029;51.058;13.826;2023-05-20T06:25:50;29.27;;;24.97;;
64619;SDS011;51029;51.058;13.826;2023-05-20T06:28:16;37.23;;;30.03;;
64619;SDS011;51029;51.058;13.826;2023-05-20T06:30:41;47.50;;;38.90;;
64619;SDS011;51029;51.058;13.826;2023-05-20T06:33:07;27.03;;;24.03;;
64619;SDS011;51029;51.058;13.826;2023-05-20T06:35:32;29.67;;;24.13;;
64619;SDS011;51029;51.058;13.826;2023-05-20T06:38:01;30.20;;;24.97;;
64619;SDS011;51029;51.058;13.826;2023-05-20T06:40:27;30.70;;;24.47;;
64619;SDS011;51029;51.058;13.826;2023-05-20T06:42:53;28.50;;;24.13;;
64619;SDS011;51029;51.058;13.826;2023-05-20T06:45:18;29.87;;;23.20;;
64619;SDS011;51029;51.058;13.826;2023-05-20T06:47:44;27.10;;;23.57;;
64619;SDS011;51029;51.058;13.826;2023-05-20T06:50:11;28.43;;;24.03;;
64619;SDS011;51029;51.058;13.826;2023-05-20T06:52:37;30.40;;;27.20;;
64619;SDS011;51029;51.058;13.826;2023-05-20T06:55:03;42.40;;;35.40;;
64619;SDS011;51029;51.058;13.826;2023-05-20T06:57:29;28.70;;;24.70;;
64619;SDS011;51029;51.058;13.826;2023-05-20T06:59:55;25.30;;;22.70;;
64619;SDS011;51029;51.058;13.826;2023-05-20T07:02:20;25.77;;;22.93;;
64619;SDS011;51029;51.058;13.826;2023-05-20T07:04:47;24.90;;;21.97;;
64619;SDS011;51029;51.058;13.826;2023-05-20T07:07:13;24.13;;;21.43;;
64619;SDS011;51029;51.058;13.826;2023-05-20T07:09:38;26.07;;;23.30;;
64619;SDS011;51029;51.058;13.826;2023-05-20T07:12:04;26.00;;;22.90;;
64619;SDS011;51029;51.058;13.826;2023-05-20T07:14:30;26.13;;;23.30;;
64619;SDS011;51029;51.058;13.826;2023-05-20T07:16:55;28.93;;;23.27;;
64619;SDS011;51029;51.058;13.826;2023-05-20T07:19:21;26.57;;;23.77;;
64619;SDS011;51029;51.058;13.826;2023-05-20T07:21:47;25.37;;;22.40;;
64619;SDS011;51029;51.058;13.826;2023-05-20T07:24:13;28.00;;;23.77;;
64619;SDS011;51029;51.058;13.826;2023-05-20T07:26:40;26.47;;;22.43;;
64619;SDS011;51029;51.058;13.826;2023-05-20T07:29:05;26.17;;;22.67;;
64619;SDS011;51029;51.058;13.826;2023-05-20T07:31:31;25.93;;;23.23;;
64619;SDS011;51029;51.058;13.826;2023-05-20T07:33:57;26.10;;;23.33;;
64619;SDS011;51029;51.058;13.826;2023-05-20T07:36:22;25.83;;;22.53;;
64619;SDS011;51029;51.058;13.826;2023-05-20T07:38:50;25.33;;;21.63;;
64619;SDS011;51029;51.058;13.826;2023-05-20T07:41:15;26.43;;;21.73;;
64619;SDS011;51029;51.058;13.826;2023-05-20T07:43:41;25.27;;;22.43;;
64619;SDS011;51029;51.058;13.826;2023-05-20T07:46:07;26.23;;;22.17;;
64619;SDS011;51029;51.058;13.826;2023-05-20T07:48:32;46.63;;;40.80;;
64619;SDS011;51029;51.058;13.826;2023-05-20T07:50:58;35.10;;;31.27;;
64619;SDS011;51029;51.058;13.826;2023-05-20T07:53:26;24.77;;;22.17;;
64619;SDS011;51029;51.058;13.826;2023-05-20T07:55:52;26.55;;;23.85;;
64619;SDS011;51029;51.058;13.826;2023-05-20T07:58:18;23.40;;;20.90;;
64619;SDS011;51029;51.058;13.826;2023-05-20T08:00:43;24.63;;;22.07;;
64619;SDS011;51029;51.058;13.826;2023-05-20T08:03:09;24.40;;;20.70;;
64619;SDS011;51029;51.058;13.826;2023-05-20T08:05:35;23.43;;;21.03;;
64619;SDS011;51029;51.058;13.826;2023-05-20T08:08:02;24.80;;;21.37;;
64619;SDS011;51029;51.058;13.826;2023-05-20T08:10:27;22.93;;;20.07;;
64619;SDS011;51029;51.058;13.826;2023-05-20T08:12:53;23.43;;;20.93;;
64619;SDS011;51029;51.058;13.826;2023-05-20T08:15:18;22.97;;;20.60;;
64619;SDS011;51029;51.058;13.826;2023-05-20T08:17:44;22.50;;;19.80;;
64619;SDS011;51029;51.058;13.826;2023-05-20T08:20:10;21.53;;;19.27;;
64619;SDS011;51029;51.058;13.826;2023-05-20T08:22:36;30.83;;;25.40;;
64619;SDS011;51029;51.058;13.826;2023-05-20T08:25:02;22.00;;;19.80;;
64619;SDS011;51029;51.058;13.826;2023-05-20T08:27:28;22.53;;;20.17;;
64619;SDS011;51029;51.058;13.826;2023-05-20T08:29:54;21.10;;;18.93;;
64619;SDS011;51029;51.058;13.826;2023-05-20T08:32:20;22.20;;;19.57;;
64619;SDS011;51029;51.058;13.826;2023-05-20T08:34:45;55.70;;;28.83;;
64619;SDS011;51029;51.058;13.826;2023-05-20T08:37:13;73.97;;;34.27;;
64619;SDS011;51029;51.058;13.826;2023-05-20T08:39:38;23.33;;;20.17;;
64619;SDS011;51029;51.058;13.826;2023-05-20T08:42:04;22.10;;;19.03;;
64619;SDS011;51029;51.058;13.826;2023-05-20T08:44:31;21.80;;;19.00;;
64619;SDS011;51029;51.058;13.826;2023-05-20T08:46:58;23.27;;;19.93;;
64619;SDS011;51029;51.058;13.826;2023-05-20T08:49:25;19.77;;;17.67;;
64619;SDS011;51029;51.058;13.826;2023-05-20T08:51:50;20.67;;;18.33;;
64619;SDS011;51029;51.058;13.826;2023-05-20T08:54:16;21.80;;;19.47;;
64619;SDS011;51029;51.058;13.826;2023-05-20T08:56:43;20.70;;;17.97;;
64619;SDS011;51029;51.058;13.826;2023-05-20T08:59:09;20.60;;;17.87;;
64619;SDS011;51029;51.058;13.826;2023-05-20T09:01:37;19.20;;;17.20;;
64619;SDS011;51029;51.058;13.826;2023-05-20T09:04:07;20.97;;;18.77;;
64619;SDS011;51029;51.058;13.826;2023-05-20T09:06:41;19.93;;;17.83;;
64619;SDS011;51029;51.058;13.826;2023-05-20T09:09:11;20.80;;;18.60;;
64619;SDS011;51029;51.058;13.826;2023-05-20T09:11:38;21.43;;;18.47;;
64619;SDS011;51029;51.058;13.826;2023-05-20T09:14:06;19.90;;;17.80;;
64619;SDS011;51029;51.058;13.826;2023-05-20T09:16:32;20.30;;;17.83;;
64619;SDS011;51029;51.058;13.826;2023-05-20T09:18:58;19.27;;;17.13;;
64619;SDS011;51029;51.058;13.826;2023-05-20T09:21:28;20.10;;;17.93;;
64619;SDS011;51029;51.058;13.826;2023-05-20T09:23:54;20.17;;;18.03;;
64619;SDS011;51029;51.058;13.826;2023-05-20T09:26:23;20.93;;;17.83;;
64619;SDS011;51029;51.058;13.826;2023-05-20T09:28:51;23.37;;;18.77;;
64619;SDS011;51029;51.058;13.826;2023-05-20T09:31:16;20.10;;;17.70;;
64619;SDS011;51029;51.058;13.826;2023-05-20T09:33:42;20.07;;;17.27;;
64619;SDS011;51029;51.058;13.826;2023-05-20T09:36:08;18.77;;;16.67;;
64619;SDS011;51029;51.058;13.826;2023-05-20T09:38:38;19.63;;;16.80;;
64619;SDS011;51029;51.058;13.826;2023-05-20T09:41:11;19.77;;;17.67;;
64619;SDS011;51029;51.058;13.826;2023-05-20T09:43:38;20.30;;;17.60;;
64619;SDS011;51029;51.058;13.826;2023-05-20T09:46:04;17.97;;;15.47;;
64619;SDS011;51029;51.058;13.826;2023-05-20T09:48:30;18.60;;;16.60;;
64619;SDS011;51029;51.058;13.826;2023-05-20T09:50:55;18.13;;;16.23;;
64619;SDS011;51029;51.058;13.826;2023-05-20T09:53:22;18.90;;;16.83;;
64619;SDS011;51029;51.058;13.826;2023-05-20T09:55:52;19.17;;;15.77;;
64619;SDS011;51029;51.058;13.826;2023-05-20T09:58:18;17.43;;;15.63;;
64619;SDS011;51029;51.058;13.826;2023-05-20T10:00:44;17.57;;;15.77;;
64619;SDS011;51029;51.058;13.826;2023-05-20T10:03:10;18.27;;;16.33;;
64619;SDS011;51029;51.058;13.826;2023-05-20T10:05:37;17.57;;;15.77;;
64619;SDS011;51029;51.058;13.826;2023-05-20T10:16:33;17.17;;;15.43;;
64619;SDS011;51029;51.058;13.826;2023-05-20T10:19:20;16.08;;;14.40;;
64619;SDS011;51029;51.058;13.826;2023-05-20T10:22:24;17.10;;;15.32;;
64619;SDS011;51029;51.058;13.826;2023-05-20T10:24:56;16.05;;;14.55;;
64619;SDS011;51029;51.058;13.826;2023-05-20T10:27:23;16.98;;;15.27;;
64619;SDS011;51029;51.058;13.826;2023-05-20T10:32:30;16.20;;;14.00;;
64619;SDS011;51029;51.058;13.826;2023-05-20T10:35:00;15.05;;;13.45;;
64619;SDS011;51029;51.058;13.826;2023-05-20T10:37:29;15.75;;;14.15;;
64619;SDS011;51029;51.058;13.826;2023-05-20T10:40:09;14.82;;;13.32;;
64619;SDS011;51029;51.058;13.826;2023-05-20T10:42:39;15.40;;;13.80;;
64619;SDS011;51029;51.058;13.826;2023-05-20T10:45:06;15.75;;;14.15;;
64619;SDS011;51029;51.058;13.826;2023-05-20T10:47:32;15.30;;;13.80;;
64619;SDS011;51029;51.058;13.826;2023-05-20T10:49:58;15.15;;;13.70;;
64619;SDS011;51029;51.058;13.826;2023-05-20T10:52:25;15.32;;;13.82;;
64619;SDS011;51029;51.058;13.826;2023-05-20T10:54:55;14.88;;;13.40;;
64619;SDS011;51029;51.058;13.826;2023-05-20T10:57:22;16.58;;;14.57;;
64619;SDS011;51029;51.058;13.826;2023-05-20T10:59:48;15.73;;;14.18;;
64619;SDS011;51029;51.058;13.826;2023-05-20T11:02:15;14.50;;;13.10;;
64619;SDS011;51029;51.058;13.826;2023-05-20T11:04:42;14.50;;;13.00;;
64619;SDS011;51029;51.058;13.826;2023-05-20T11:07:08;13.45;;;12.20;;
64619;SDS011;51029;51.058;13.826;2023-05-20T11:09:33;13.77;;;12.38;;
64619;SDS011;51029;51.058;13.826;2023-05-20T11:11:59;14.07;;;12.70;;
64619;SDS011;51029;51.058;13.826;2023-05-20T11:14:26;13.27;;;11.88;;
64619;SDS011;51029;51.058;13.826;2023-05-20T11:16:54;13.07;;;11.77;;
64619;SDS011;51029;51.058;13.826;2023-05-20T11:19:24;13.68;;;12.38;;
64619;SDS011;51029;51.058;13.826;2023-05-20T11:21:50;12.32;;;11.10;;
64619;SDS011;51029;51.058;13.826;2023-05-20T11:24:24;12.80;;;11.52;;
64619;SDS011;51029;51.058;13.826;2023-05-20T11:26:51;11.93;;;10.80;;
64619;SDS011;51029;51.058;13.826;2023-05-20T11:29:18;13.05;;;11.85;;
64619;SDS011;51029;51.058;13.826;2023-05-20T11:31:44;14.23;;;11.15;;
64619;SDS011;51029;51.058;13.826;2023-05-20T11:34:10;12.75;;;11.65;;
64619;SDS011;51029;51.058;13.826;2023-05-20T11:36:42;13.35;;;12.05;;
64619;SDS011;51029;51.058;13.826;2023-05-20T11:39:11;12.57;;;11.38;;
64619;SDS011;51029;51.058;13.826;2023-05-20T11:41:38;13.13;;;11.73;;
64619;SDS011;51029;51.058;13.826;2023-05-20T11:44:08;12.38;;;11.18;;
64619;SDS011;51029;51.058;13.826;2023-05-20T11:46:39;12.80;;;11.50;;
64619;SDS011;51029;51.058;13.826;2023-05-20T11:49:06;12.23;;;11.13;;
64619;SDS011;51029;51.058;13.826;2023-05-20T11:51:32;11.73;;;10.63;;
64619;SDS011;51029;51.058;13.826;2023-05-20T11:54:01;13.60;;;12.23;;
64619;SDS011;51029;51.058;13.826;2023-05-20T11:56:28;12.73;;;11.63;;
64619;SDS011;51029;51.058;13.826;2023-05-20T11:58:58;11.60;;;10.60;;
64619;SDS011;51029;51.058;13.826;2023-05-20T12:01:25;10.90;;;10.00;;
64619;SDS011;51029;51.058;13.826;2023-05-20T12:03:54;11.05;;;10.05;;
64619;SDS011;51029;51.058;13.826;2023-05-20T12:06:19;12.63;;;10.02;;
64619;SDS011;51029;51.058;13.826;2023-05-20T12:08:45;11.88;;;10.23;;
64619;SDS011;51029;51.058;13.826;2023-05-20T12:11:11;10.57;;;9.50;;
64619;SDS011;51029;51.058;13.826;2023-05-20T12:13:37;11.40;;;10.40;;
64619;SDS011;51029;51.058;13.826;2023-05-20T12:16:03;11.60;;;10.50;;
64619;SDS011;51029;51.058;13.826;2023-05-20T12:18:30;11.60;;;10.40;;
64619;SDS011;51029;51.058;13.826;2023-05-20T12:20:56;10.25;;;9.25;;
64619;SDS011;51029;51.058;13.826;2023-05-20T12:23:22;10.75;;;9.80;;
64619;SDS011;51029;51.058;13.826;2023-05-20T12:25:48;11.50;;;10.50;;
64619;SDS011;51029;51.058;13.826;2023-05-20T12:28:14;11.23;;;10.15;;
64619;SDS011;51029;51.058;13.826;2023-05-20T12:30:40;11.18;;;10.25;;
64619;SDS011;51029;51.058;13.826;2023-05-20T12:33:06;10.98;;;9.98;;
64619;SDS011;51029;51.058;13.826;2023-05-20T12:35:39;10.60;;;9.57;;
64619;SDS011;51029;51.058;13.826;2023-05-20T12:38:06;11.48;;;10.25;;
64619;SDS011;51029;51.058;13.826;2023-05-20T12:40:32;11.70;;;10.23;;
64619;SDS011;51029;51.058;13.826;2023-05-20T12:42:59;10.85;;;9.80;;
64619;SDS011;51029;51.058;13.826;2023-05-20T12:45:25;10.98;;;9.45;;
64619;SDS011;51029;51.058;13.826;2023-05-20T12:47:51;11.63;;;10.60;;
64619;SDS011;51029;51.058;13.826;2023-05-20T12:50:16;11.63;;;10.60;;
64619;SDS011;51029;51.058;13.826;2023-05-20T12:52:42;12.85;;;11.52;;
64619;SDS011;51029;51.058;13.826;2023-05-20T12:55:08;12.75;;;11.57;;
64619;SDS011;51029;51.058;13.826;2023-05-20T12:57:38;12.30;;;11.13;;
64619;SDS011;51029;51.058;13.826;2023-05-20T13:00:07;14.10;;;12.63;;
64619;SDS011;51029;51.058;13.826;2023-05-20T13:02:34;14.65;;;13.13;;
64619;SDS011;51029;51.058;13.826;2023-05-20T13:05:04;15.05;;;13.27;;
64619;SDS011;51029;51.058;13.826;2023-05-20T13:07:30;14.70;;;13.20;;
64619;SDS011;51029;51.058;13.826;2023-05-20T13:09:56;14.40;;;12.02;;
64619;SDS011;51029;51.058;13.826;2023-05-20T13:12:22;14.02;;;12.63;;
64619;SDS011;51029;51.058;13.826;2023-05-20T13:14:48;12.90;;;11.70;;
64619;SDS011;51029;51.058;13.826;2023-05-20T13:17:13;12.90;;;11.43;;
64619;SDS011;51029;51.058;13.826;2023-05-20T13:19:39;11.88;;;10.73;;
64619;SDS011;51029;51.058;13.826;2023-05-20T13:22:05;12.65;;;9.98;;
64619;SDS011;51029;51.058;13.826;2023-05-20T13:24:30;10.98;;;9.85;;
64619;SDS011;51029;51.058;13.826;2023-05-20T13:26:57;10.98;;;9.90;;
64619;SDS011;51029;51.058;13.826;2023-05-20T13:29:25;11.02;;;9.88;;
64619;SDS011;51029;51.058;13.826;2023-05-20T13:31:53;10.95;;;9.82;;
64619;SDS011;51029;51.058;13.826;2023-05-20T13:34:19;10.90;;;9.75;;
64619;SDS011;51029;51.058;13.826;2023-05-20T13:36:44;10.50;;;9.40;;
64619;SDS011;51029;51.058;13.826;2023-05-20T13:39:11;10.10;;;9.18;;
64619;SDS011;51029;51.058;13.826;2023-05-20T13:41:38;10.32;;;9.27;;
64619;SDS011;51029;51.058;13.826;2023-05-20T13:44:04;10.25;;;9.25;;
64619;SDS011;51029;51.058;13.826;2023-05-20T13:46:30;10.48;;;9.57;;
64619;SDS011;51029;51.058;13.826;2023-05-20T13:48:55;10.63;;;9.57;;
64619;SDS011;51029;51.058;13.826;2023-05-20T13:51:21;11.77;;;10.55;;
64619;SDS011;51029;51.058;13.826;2023-05-20T13:53:46;11.20;;;10.05;;
64619;SDS011;51029;51.058;13.826;2023-05-20T13:56:12;12.95;;;11.45;;
64619;SDS011;51029;51.058;13.826;2023-05-20T13:58:37;12.38;;;11.27;;
64619;SDS011;51029;51.058;13.826;2023-05-20T14:01:03;12.02;;;10.90;;
64619;SDS011;51029;51.058;13.826;2023-05-20T14:03:30;12.38;;;11.07;;
64619;SDS011;51029;51.058;13.826;2023-05-20T14:05:57;11.57;;;10.48;;
64619;SDS011;51029;51.058;13.826;2023-05-20T14:08:22;11.15;;;10.13;;
64619;SDS011;51029;51.058;13.826;2023-05-20T14:10:48;11.65;;;10.48;;
64619;SDS011;51029;51.058;13.826;2023-05-20T14:13:14;11.35;;;10.23;;
64619;SDS011;51029;51.058;13.826;2023-05-20T14:15:39;10.80;;;9.80;;